createdAt,value
2023-06-20T00:00:49.503Z,16.65
2023-06-20T00:03:17.132Z,16.33
2023-06-20T00:05:44.541Z,16.80
2023-06-20T00:08:11.333Z,16.95
2023-06-20T00:10:38.414Z,16.42
2023-06-20T00:13:04.930Z,17.02
2023-06-20T00:15:31.946Z,16.60
2023-06-20T00:18:01.608Z,17.48
2023-06-20T00:20:29.837Z,16.33
2023-06-20T00:22:56.809Z,17.38
2023-06-20T00:25:23.958Z,16.40
2023-06-20T00:27:50.849Z,17.30
2023-06-20T00:30:17.405Z,17.05
2023-06-20T00:32:43.932Z,18.75
2023-06-20T00:35:10.669Z,19.63
2023-06-20T00:37:39.550Z,20.85
2023-06-20T00:40:08.578Z,19.83
2023-06-20T00:42:35.483Z,19.50
2023-06-20T00:45:02.619Z,19.77
2023-06-20T00:47:29.458Z,21.73
2023-06-20T00:49:57.184Z,20.35
2023-06-20T00:52:24.313Z,20.55
2023-06-20T00:54:50.891Z,21.27
2023-06-20T00:57:19.371Z,20.40
2023-06-20T00:59:50.898Z,20.85
2023-06-20T01:04:46.827Z,20.38
2023-06-20T01:07:59.073Z,21.17
2023-06-20T01:10:34.932Z,22.42
2023-06-20T01:13:25.046Z,22.70
2023-06-20T01:16:00.837Z,20.90
2023-06-20T01:19:06.552Z,21.75
2023-06-20T01:21:41.449Z,21.48
2023-06-20T01:24:19.277Z,23.30
2023-06-20T01:26:55.646Z,21.17
2023-06-20T01:29:33.947Z,21.65
2023-06-20T01:32:04.601Z,20.45
2023-06-20T01:34:33.744Z,19.93
2023-06-20T01:37:02.403Z,19.65
2023-06-20T01:39:40.694Z,19.38
2023-06-20T01:42:07.520Z,20.23
2023-06-20T01:44:36.482Z,20.50
2023-06-20T01:47:05.557Z,19.90
2023-06-20T01:49:33.153Z,21.67
2023-06-20T01:52:00.427Z,21.38
2023-06-20T01:54:30.820Z,21.38
2023-06-20T01:56:58.804Z,20.35
2023-06-20T01:59:27.922Z,22.38
2023-06-20T02:01:56.127Z,20.67
2023-06-20T02:04:24.093Z,22.60
2023-06-20T02:06:52.106Z,21.10
2023-06-20T02:09:19.956Z,22.70
2023-06-20T02:11:47.810Z,21.38
2023-06-20T02:14:15.297Z,21.38
2023-06-20T02:16:43.919Z,21.63
2023-06-20T02:19:10.878Z,22.65
2023-06-20T02:21:39.442Z,21.50
2023-06-20T02:24:07.851Z,21.40
2023-06-20T02:26:39.290Z,20.42
2023-06-20T02:29:08.334Z,20.17
2023-06-20T02:31:39.526Z,20.33
2023-06-20T02:34:09.364Z,21.80
2023-06-20T02:36:36.769Z,21.02
2023-06-20T02:39:05.794Z,21.38
2023-06-20T02:41:32.385Z,20.45
2023-06-20T02:43:58.884Z,20.00
2023-06-20T02:46:31.317Z,20.48
2023-06-20T02:49:16.463Z,20.13
2023-06-20T02:51:57.466Z,19.60
2023-06-20T02:54:36.057Z,19.52
2023-06-20T02:57:06.730Z,20.05
2023-06-20T02:59:37.292Z,19.13
2023-06-20T03:02:08.088Z,20.90
2023-06-20T03:04:35.505Z,21.85
2023-06-20T03:07:03.306Z,21.95
2023-06-20T03:09:34.161Z,20.90
2023-06-20T03:12:00.850Z,23.58
2023-06-20T03:14:27.365Z,22.08
2023-06-20T03:16:53.857Z,23.13
2023-06-20T03:19:20.353Z,21.50
2023-06-20T03:21:46.873Z,20.77
2023-06-20T03:24:13.421Z,20.65
2023-06-20T03:26:39.990Z,20.08
2023-06-20T03:29:06.790Z,20.88
2023-06-20T03:31:33.357Z,20.85
2023-06-20T03:33:59.856Z,20.13
2023-06-20T03:36:26.396Z,20.90
2023-06-20T03:38:52.848Z,21.52
2023-06-20T03:41:19.338Z,21.77
2023-06-20T03:43:45.852Z,23.67
2023-06-20T03:46:12.390Z,23.45
2023-06-20T03:48:38.899Z,23.15
2023-06-20T03:51:05.580Z,23.70
2023-06-20T03:53:32.170Z,22.60
2023-06-20T03:55:58.701Z,22.20
2023-06-20T03:58:25.204Z,22.25
2023-06-20T04:00:52.033Z,22.80
2023-06-20T04:03:18.758Z,22.77
2023-06-20T04:05:45.521Z,23.77
2023-06-20T04:08:12.007Z,22.98
2023-06-20T04:10:38.988Z,23.00
2023-06-20T04:13:05.594Z,23.25
2023-06-20T04:15:32.112Z,25.10
2023-06-20T04:17:58.720Z,25.20
2023-06-20T04:20:25.278Z,24.30
2023-06-20T04:22:51.833Z,24.80
2023-06-20T04:25:18.417Z,24.65
2023-06-20T04:27:45.108Z,25.08
2023-06-20T04:30:12.220Z,24.55
2023-06-20T04:32:39.016Z,24.13
2023-06-20T04:35:06.485Z,24.05
2023-06-20T04:37:32.999Z,24.58
2023-06-20T04:39:59.608Z,24.25
2023-06-20T04:42:26.229Z,22.48
2023-06-20T04:44:53.001Z,23.40
2023-06-20T04:47:19.575Z,23.48
2023-06-20T04:49:46.193Z,24.27
2023-06-20T04:52:12.764Z,23.17
2023-06-20T04:54:39.325Z,24.77
2023-06-20T04:57:05.965Z,25.02
2023-06-20T04:59:32.494Z,24.27
2023-06-20T05:01:59.080Z,26.33
2023-06-20T05:04:25.743Z,24.50
2023-06-20T05:06:52.340Z,23.20
2023-06-20T05:09:18.834Z,23.70
2023-06-20T05:11:45.350Z,23.17
2023-06-20T05:14:11.862Z,23.08
2023-06-20T05:16:38.498Z,21.00
2023-06-20T05:19:05.217Z,21.80
2023-06-20T05:21:31.746Z,22.13
2023-06-20T05:23:58.316Z,27.88
2023-06-20T05:26:24.814Z,23.42
2023-06-20T05:28:51.355Z,21.58
2023-06-20T05:31:18.022Z,23.00
2023-06-20T05:33:44.649Z,20.98
2023-06-20T05:36:11.170Z,20.17
2023-06-20T05:38:38.076Z,21.92
2023-06-20T05:41:04.847Z,23.52
2023-06-20T05:43:31.980Z,21.30
2023-06-20T05:45:59.213Z,22.83
2023-06-20T05:48:26.717Z,22.70
2023-06-20T05:50:53.539Z,21.80
2023-06-20T05:53:22.071Z,21.45
2023-06-20T05:55:52.045Z,21.77
2023-06-20T05:58:19.868Z,20.10
2023-06-20T06:00:47.043Z,23.13
2023-06-20T06:03:14.624Z,22.55
2023-06-20T06:05:41.535Z,22.98
2023-06-20T06:08:08.053Z,23.17
2023-06-20T06:10:34.602Z,22.85
2023-06-20T06:13:01.363Z,22.75
2023-06-20T06:15:27.895Z,23.05
2023-06-20T06:17:54.423Z,22.27
2023-06-20T06:20:21.603Z,21.65
2023-06-20T06:22:48.053Z,23.42
2023-06-20T06:25:14.662Z,24.17
2023-06-20T06:27:42.198Z,23.88
2023-06-20T06:30:09.853Z,23.42
2023-06-20T06:32:37.398Z,21.63
2023-06-20T06:35:07.014Z,22.75
2023-06-20T06:37:33.918Z,23.08
2023-06-20T06:40:00.877Z,21.50
2023-06-20T06:42:27.922Z,23.10
2023-06-20T06:44:54.693Z,22.40
2023-06-20T06:47:21.235Z,21.92
2023-06-20T06:49:47.874Z,21.45
2023-06-20T06:52:14.710Z,21.80
2023-06-20T06:54:41.299Z,23.88
2023-06-20T06:57:07.907Z,22.95
2023-06-20T06:59:34.405Z,19.85
2023-06-20T07:02:00.983Z,20.92
2023-06-20T07:04:27.543Z,24.38
2023-06-20T07:06:54.131Z,23.33
2023-06-20T07:09:20.626Z,23.42
2023-06-20T07:11:47.236Z,23.67
2023-06-20T07:14:13.737Z,23.90
2023-06-20T07:16:48.945Z,24.42
2023-06-20T07:19:22.051Z,22.58
2023-06-20T07:21:48.560Z,23.83
2023-06-20T07:24:15.206Z,20.10
2023-06-20T07:26:41.742Z,25.13
2023-06-20T07:29:08.277Z,22.50
2023-06-20T07:31:34.858Z,23.67
2023-06-20T07:34:01.394Z,22.17
2023-06-20T07:36:27.911Z,24.55
2023-06-20T07:38:54.584Z,23.48
2023-06-20T07:41:21.163Z,24.45
2023-06-20T07:43:47.652Z,25.13
2023-06-20T07:46:14.309Z,26.27
2023-06-20T07:48:40.938Z,24.05
2023-06-20T07:51:07.581Z,25.13
2023-06-20T07:53:34.099Z,24.38
2023-06-20T07:56:01.149Z,22.15
2023-06-20T07:58:27.831Z,25.42
2023-06-20T08:00:57.948Z,23.48
2023-06-20T08:03:26.328Z,23.40
2023-06-20T08:05:53.434Z,24.67
2023-06-20T08:08:19.968Z,24.33
2023-06-20T08:10:46.453Z,25.40
2023-06-20T08:13:12.995Z,23.73
2023-06-20T08:15:39.792Z,24.23
2023-06-20T08:18:06.449Z,23.63
2023-06-20T08:20:33.000Z,23.90
2023-06-20T08:22:59.463Z,21.55
2023-06-20T08:25:26.256Z,22.48
2023-06-20T08:28:02.075Z,24.02
2023-06-20T08:30:37.024Z,24.08
2023-06-20T08:33:03.841Z,24.42
2023-06-20T08:35:30.504Z,21.45
2023-06-20T08:37:57.095Z,23.92
2023-06-20T08:40:24.042Z,22.90
2023-06-20T08:42:50.892Z,24.20
2023-06-20T08:45:17.524Z,25.63
2023-06-20T08:47:44.128Z,22.65
2023-06-20T08:50:11.585Z,23.33
2023-06-20T08:52:50.526Z,23.35
2023-06-20T08:55:17.734Z,23.17
2023-06-20T08:57:47.491Z,23.52
2023-06-20T09:00:22.227Z,23.08
2023-06-20T09:02:49.543Z,23.52
2023-06-20T09:05:16.656Z,22.65
2023-06-20T09:07:44.130Z,23.88
2023-06-20T09:10:12.479Z,24.27
2023-06-20T09:12:55.732Z,24.60
2023-06-20T09:15:24.363Z,26.17
2023-06-20T09:17:52.557Z,24.15
2023-06-20T09:20:19.392Z,22.67
2023-06-20T09:22:46.069Z,22.67
2023-06-20T09:25:13.951Z,22.25
2023-06-20T09:27:42.877Z,21.95
2023-06-20T09:30:09.782Z,22.50
2023-06-20T09:32:38.041Z,24.08
2023-06-20T09:35:05.961Z,24.25
2023-06-20T09:37:45.103Z,22.27
2023-06-20T09:40:13.568Z,24.52
2023-06-20T09:42:42.114Z,23.55
2023-06-20T09:45:10.337Z,24.25
2023-06-20T09:47:40.201Z,23.75
2023-06-20T09:50:17.205Z,24.23
2023-06-20T09:52:48.110Z,24.05
2023-06-20T09:55:16.691Z,25.95
2023-06-20T09:57:46.495Z,25.33
2023-06-20T10:00:16.441Z,29.13
2023-06-20T10:02:48.700Z,27.55
2023-06-20T10:05:17.384Z,26.10
2023-06-20T10:07:45.560Z,30.83
2023-06-20T10:10:13.855Z,29.05
2023-06-20T10:12:42.442Z,29.55
2023-06-20T10:15:10.577Z,31.17
2023-06-20T10:17:50.164Z,30.23
2023-06-20T10:20:30.118Z,32.97
2023-06-20T10:22:59.496Z,35.60
2023-06-20T10:25:28.017Z,34.50
2023-06-20T10:27:59.382Z,34.97
2023-06-20T10:30:50.757Z,37.28
2023-06-20T10:33:38.419Z,39.55
2023-06-20T10:36:10.016Z,38.67
2023-06-20T10:39:08.086Z,41.95
2023-06-20T10:41:34.601Z,42.15
2023-06-20T10:44:02.498Z,43.30
2023-06-20T10:46:38.120Z,45.42
2023-06-20T10:49:05.765Z,45.75
2023-06-20T10:51:43.126Z,43.75
2023-06-20T10:54:13.882Z,45.80
2023-06-20T10:56:40.571Z,45.17
2023-06-20T10:59:15.830Z,42.35
2023-06-20T11:01:43.140Z,44.80
2023-06-20T11:04:11.503Z,51.28
2023-06-20T11:06:38.895Z,47.80
2023-06-20T11:09:05.829Z,48.20
2023-06-20T11:11:38.326Z,44.45
2023-06-20T11:14:14.862Z,43.95
2023-06-20T11:16:42.843Z,44.50
2023-06-20T11:19:19.314Z,42.35
2023-06-20T11:21:56.869Z,42.63
2023-06-20T11:24:23.509Z,48.47
2023-06-20T11:26:50.264Z,44.88
2023-06-20T11:29:17.104Z,45.55
2023-06-20T11:31:44.166Z,41.67
2023-06-20T11:34:12.725Z,42.08
2023-06-20T11:36:40.572Z,43.92
2023-06-20T11:39:12.979Z,45.60
2023-06-20T11:41:39.955Z,43.35
2023-06-20T11:44:22.663Z,43.33
2023-06-20T11:46:49.232Z,43.72
2023-06-20T11:49:30.098Z,43.58
2023-06-20T11:51:56.837Z,41.72
2023-06-20T11:54:24.244Z,39.88
2023-06-20T11:56:54.697Z,40.65
2023-06-20T11:59:24.850Z,40.55
2023-06-20T12:01:51.666Z,39.00
2023-06-20T12:04:22.463Z,40.88
2023-06-20T12:06:54.256Z,39.67
2023-06-20T12:09:23.817Z,40.92
2023-06-20T12:11:53.529Z,38.70
2023-06-20T12:14:21.041Z,37.08
2023-06-20T12:16:47.493Z,38.60
2023-06-20T12:19:14.758Z,38.60
2023-06-20T12:21:41.372Z,36.60
2023-06-20T12:24:09.295Z,35.50
2023-06-20T12:26:36.702Z,31.15
2023-06-20T12:29:04.296Z,32.92
2023-06-20T12:31:31.726Z,31.42
2023-06-20T12:33:58.528Z,33.30
2023-06-20T12:36:25.176Z,35.35
2023-06-20T12:38:52.026Z,36.60
2023-06-20T12:41:18.758Z,30.75
2023-06-20T12:43:45.218Z,33.67
2023-06-20T12:46:11.885Z,32.90
2023-06-20T12:48:38.385Z,31.05
2023-06-20T12:51:04.915Z,33.38
2023-06-20T12:53:31.443Z,32.63
2023-06-20T12:55:58.900Z,31.15
2023-06-20T12:58:25.879Z,28.30
2023-06-20T13:00:52.670Z,26.58
2023-06-20T13:03:19.699Z,32.58
2023-06-20T13:05:46.255Z,29.08
2023-06-20T13:08:12.875Z,27.30
2023-06-20T13:10:40.204Z,26.58
2023-06-20T13:13:06.763Z,25.50
2023-06-20T13:15:33.820Z,25.35
2023-06-20T13:18:05.791Z,24.02
2023-06-20T13:20:35.438Z,23.15
2023-06-20T13:23:03.129Z,21.73
2023-06-20T13:25:29.722Z,19.25
2023-06-20T13:27:56.422Z,21.58
2023-06-20T13:30:23.802Z,21.70
2023-06-20T13:32:50.586Z,18.58
2023-06-20T13:35:18.638Z,19.20
2023-06-20T13:37:46.037Z,17.75
2023-06-20T13:40:13.713Z,17.25
2023-06-20T13:42:43.451Z,16.65
2023-06-20T13:45:13.756Z,16.98
2023-06-20T13:47:42.008Z,17.05
2023-06-20T13:50:10.438Z,17.65
2023-06-20T13:52:37.657Z,17.92
2023-06-20T13:55:06.040Z,18.33
2023-06-20T13:57:33.321Z,17.38
2023-06-20T14:00:06.860Z,18.88
2023-06-20T14:02:33.497Z,17.20
2023-06-20T14:05:00.013Z,15.50
2023-06-20T14:07:28.695Z,16.95
2023-06-20T14:09:55.353Z,16.30
2023-06-20T14:12:23.520Z,16.58
2023-06-20T14:14:50.302Z,15.73
2023-06-20T14:17:16.943Z,16.80
2023-06-20T14:19:43.931Z,17.65
2023-06-20T14:22:10.410Z,18.08
2023-06-20T14:24:36.999Z,17.65
2023-06-20T14:27:04.357Z,16.20
2023-06-20T14:29:32.499Z,16.05
2023-06-20T14:31:59.004Z,15.65
2023-06-20T14:34:26.392Z,15.77
2023-06-20T14:36:52.896Z,15.23
2023-06-20T14:39:19.461Z,13.15
2023-06-20T14:41:45.961Z,13.55
2023-06-20T14:44:12.427Z,12.70
2023-06-20T14:46:39.028Z,13.15
2023-06-20T14:49:05.593Z,13.60
2023-06-20T14:51:32.052Z,13.30
2023-06-20T14:53:58.561Z,13.32
2023-06-20T14:56:25.506Z,13.63
2023-06-20T14:58:51.995Z,13.23
2023-06-20T15:01:18.539Z,14.55
2023-06-20T15:03:45.237Z,14.35
2023-06-20T15:06:11.926Z,14.20
2023-06-20T15:08:38.453Z,16.00
2023-06-20T15:11:05.001Z,16.35
2023-06-20T15:13:31.489Z,15.05
2023-06-20T15:15:58.060Z,15.35
2023-06-20T15:18:24.625Z,15.70
2023-06-20T15:20:51.109Z,14.73
2023-06-20T15:23:17.613Z,13.48
2023-06-20T15:25:44.150Z,12.68
2023-06-20T15:28:10.726Z,13.73
2023-06-20T15:30:37.215Z,15.80
2023-06-20T15:33:05.393Z,14.23
2023-06-20T15:35:32.316Z,14.27
2023-06-20T15:38:00.489Z,12.35
2023-06-20T15:40:27.384Z,11.98
2023-06-20T15:42:54.299Z,12.13
2023-06-20T15:45:37.526Z,12.02
2023-06-20T15:48:04.327Z,12.88
2023-06-20T15:50:30.903Z,16.50
2023-06-20T15:52:57.492Z,11.98
2023-06-20T15:55:23.960Z,11.15
2023-06-20T15:57:50.458Z,10.52
2023-06-20T16:00:17.465Z,10.50
2023-06-20T16:02:44.017Z,11.55
2023-06-20T16:05:10.703Z,10.48
2023-06-20T16:07:37.278Z,10.60
2023-06-20T16:10:04.181Z,11.88
2023-06-20T16:12:31.562Z,12.70
2023-06-20T16:14:58.625Z,12.60
2023-06-20T16:17:25.430Z,13.65
2023-06-20T16:19:52.591Z,13.75
2023-06-20T16:22:19.141Z,13.98
2023-06-20T16:24:46.050Z,14.18
2023-06-20T16:27:12.740Z,13.75
2023-06-20T16:29:40.226Z,15.25
2023-06-20T16:32:07.391Z,15.88
2023-06-20T16:34:34.397Z,15.90
2023-06-20T16:37:01.099Z,16.30
2023-06-20T16:39:29.797Z,16.90
2023-06-20T16:41:56.361Z,16.65
2023-06-20T16:44:22.999Z,16.80
2023-06-20T16:46:49.593Z,16.83
2023-06-20T16:49:16.115Z,16.83
2023-06-20T16:51:44.251Z,17.20
2023-06-20T16:54:11.709Z,17.30
2023-06-20T16:56:38.320Z,17.77
2023-06-20T16:59:04.859Z,19.42
2023-06-20T17:01:31.777Z,18.63
2023-06-20T17:04:00.615Z,18.92
2023-06-20T17:06:27.171Z,20.17
2023-06-20T17:08:53.744Z,20.70
2023-06-20T17:11:21.173Z,20.17
2023-06-20T17:13:47.695Z,20.05
2023-06-20T17:16:14.264Z,19.67
2023-06-20T17:18:40.762Z,20.67
2023-06-20T17:21:08.900Z,21.38
2023-06-20T17:23:36.103Z,21.30
2023-06-20T17:26:02.612Z,21.60
2023-06-20T17:28:29.188Z,20.52
2023-06-20T17:30:55.701Z,22.95
2023-06-20T17:33:22.208Z,22.50
2023-06-20T17:35:48.813Z,22.85
2023-06-20T17:38:15.429Z,22.08
2023-06-20T17:40:42.206Z,23.48
2023-06-20T17:43:08.698Z,21.88
2023-06-20T17:45:35.789Z,22.88
2023-06-20T17:48:02.302Z,23.60
2023-06-20T17:50:29.003Z,22.88
2023-06-20T17:52:55.774Z,24.35
2023-06-20T17:55:22.282Z,24.55
2023-06-20T17:58:00.281Z,24.75
2023-06-20T18:00:28.633Z,23.80
2023-06-20T18:02:55.734Z,24.38
2023-06-20T18:05:22.651Z,23.98
2023-06-20T18:07:49.145Z,25.00
2023-06-20T18:10:18.322Z,25.25
2023-06-20T18:12:45.142Z,24.77
2023-06-20T18:15:11.639Z,25.48
2023-06-20T18:17:38.187Z,23.83
2023-06-20T18:20:05.251Z,25.30
2023-06-20T18:22:31.708Z,26.08
2023-06-20T18:24:58.996Z,25.85
2023-06-20T18:27:26.192Z,26.15
2023-06-20T18:29:52.966Z,24.30
2023-06-20T18:32:19.734Z,25.90
2023-06-20T18:34:46.760Z,24.95
2023-06-20T18:37:13.336Z,26.77
2023-06-20T18:39:39.946Z,25.65
2023-06-20T18:42:06.956Z,25.92
2023-06-20T18:44:33.442Z,25.27
2023-06-20T18:47:00.973Z,26.23
2023-06-20T18:49:29.291Z,26.98
2023-06-20T18:51:55.785Z,26.40
2023-06-20T18:54:22.450Z,26.15
2023-06-20T18:56:49.305Z,24.05
2023-06-20T18:59:15.852Z,25.42
2023-06-20T19:01:45.065Z,28.33
2023-06-20T19:04:12.250Z,27.63
2023-06-20T19:06:39.900Z,27.38
2023-06-20T19:09:08.629Z,27.15
2023-06-20T19:11:36.129Z,29.00
2023-06-20T19:14:03.699Z,29.15
2023-06-20T19:16:30.459Z,27.77
2023-06-20T19:18:56.978Z,28.02
2023-06-20T19:21:23.570Z,28.25
2023-06-20T19:23:53.021Z,28.05
2023-06-20T19:26:19.740Z,28.50
2023-06-20T19:28:46.401Z,28.45
2023-06-20T19:31:13.585Z,27.23
2023-06-20T19:33:40.474Z,27.38
2023-06-20T19:36:07.036Z,27.17
2023-06-20T19:38:33.676Z,27.75
2023-06-20T19:41:00.724Z,28.40
2023-06-20T19:43:27.222Z,29.40
2023-06-20T19:45:53.865Z,28.92
2023-06-20T19:48:20.446Z,29.05
2023-06-20T19:50:46.930Z,28.50
2023-06-20T19:53:13.499Z,29.42
2023-06-20T19:55:40.031Z,28.95
2023-06-20T19:58:06.549Z,29.00
2023-06-20T20:00:33.143Z,30.65
2023-06-20T20:02:59.937Z,29.70
2023-06-20T20:05:26.463Z,29.20
2023-06-20T20:07:53.505Z,29.48
2023-06-20T20:10:20.092Z,30.65
2023-06-20T20:12:46.611Z,29.75
2023-06-20T20:15:13.290Z,31.63
2023-06-20T20:17:39.887Z,30.52
2023-06-20T20:20:07.054Z,31.77
2023-06-20T20:22:35.861Z,31.35
2023-06-20T20:25:11.771Z,30.85
2023-06-20T20:27:41.484Z,31.77
2023-06-20T20:30:09.410Z,33.95
2023-06-20T20:32:36.305Z,31.33
2023-06-20T20:35:04.232Z,31.45
2023-06-20T20:37:31.085Z,32.05
2023-06-20T20:39:58.602Z,33.95
2023-06-20T20:42:25.711Z,33.25
2023-06-20T20:44:52.209Z,32.00
2023-06-20T20:47:18.850Z,34.65
2023-06-20T20:49:45.378Z,33.35
2023-06-20T20:52:11.924Z,33.70
2023-06-20T20:54:38.494Z,33.72
2023-06-20T20:57:05.488Z,33.88
2023-06-20T20:59:32.118Z,33.38
2023-06-20T21:01:58.680Z,36.00
2023-06-20T21:04:25.228Z,34.47
2023-06-20T21:06:51.873Z,35.33
2023-06-20T21:09:18.382Z,35.42
2023-06-20T21:11:45.441Z,34.70
2023-06-20T21:14:12.081Z,34.03
2023-06-20T21:16:39.069Z,35.05
2023-06-20T21:19:06.130Z,35.85
2023-06-20T21:21:32.798Z,36.80
2023-06-20T21:24:02.294Z,36.15
2023-06-20T21:26:29.076Z,35.70
2023-06-20T21:28:55.606Z,35.28
2023-06-20T21:31:22.277Z,37.15
2023-06-20T21:33:48.902Z,36.63
2023-06-20T21:36:15.664Z,37.63
2023-06-20T21:38:42.486Z,39.30
2023-06-20T21:41:08.990Z,37.15
2023-06-20T21:43:36.807Z,39.10
2023-06-20T21:46:04.039Z,38.88
2023-06-20T21:48:30.655Z,37.95
2023-06-20T21:50:57.184Z,39.40
2023-06-20T21:53:24.220Z,38.88
2023-06-20T21:55:50.776Z,38.92
2023-06-20T21:58:17.785Z,37.70
2023-06-20T22:00:44.520Z,36.85
2023-06-20T22:03:11.170Z,39.70
2023-06-20T22:05:37.824Z,38.25
2023-06-20T22:08:04.677Z,39.33
2023-06-20T22:10:31.284Z,41.88
2023-06-20T22:12:58.945Z,36.28
2023-06-20T22:15:25.512Z,38.88
2023-06-20T22:17:52.229Z,38.60
2023-06-20T22:20:18.964Z,39.33
2023-06-20T22:22:45.627Z,41.63
2023-06-20T22:25:12.316Z,41.63
2023-06-20T22:27:38.847Z,41.40
2023-06-20T22:30:09.515Z,41.85
2023-06-20T22:32:36.190Z,40.17
2023-06-20T22:35:02.771Z,41.47
2023-06-20T22:37:29.916Z,40.00
2023-06-20T22:39:56.460Z,40.85
2023-06-20T22:42:23.721Z,39.55
2023-06-20T22:44:50.247Z,40.15
2023-06-20T22:47:17.584Z,40.65
2023-06-20T22:49:44.234Z,40.80
2023-06-20T22:52:10.823Z,40.85
2023-06-20T22:54:37.306Z,39.88
2023-06-20T22:57:04.036Z,40.88
2023-06-20T22:59:30.576Z,40.92
2023-06-20T23:01:57.529Z,41.80
2023-06-20T23:04:24.304Z,40.78
2023-06-20T23:06:51.143Z,40.28
2023-06-20T23:09:17.788Z,41.92
2023-06-20T23:11:44.801Z,40.90
2023-06-20T23:14:12.114Z,41.90
2023-06-20T23:16:38.757Z,42.00
2023-06-20T23:19:05.383Z,41.95
2023-06-20T23:21:32.102Z,40.88
2023-06-20T23:23:58.674Z,39.72
2023-06-20T23:26:25.257Z,41.40
2023-06-20T23:28:51.785Z,41.78
2023-06-20T23:31:19.370Z,39.03
2023-06-20T23:33:46.423Z,40.45
2023-06-20T23:36:16.929Z,40.70
2023-06-20T23:38:44.346Z,42.33
2023-06-20T23:41:10.869Z,41.25
2023-06-20T23:43:37.661Z,41.35
2023-06-20T23:46:04.233Z,41.55
2023-06-20T23:48:31.516Z,40.78
2023-06-20T23:50:58.165Z,43.03
2023-06-20T23:53:24.722Z,41.67
2023-06-20T23:55:51.287Z,42.15
2023-06-20T23:58:18.237Z,42.17
